Avondale, Pennsylvania
Current Conditions -  °F | °C
As of 7:15 AM on Wednesday 26 Nov 2014 (Local Time) from KMQS Reporting Station
Moderate Rain Moderate Rain  
Wind Chill: 34°   Ceiling: 2200
Heat Index: 39°   Visibility: 4mi
Dew Point: 37°   Wind: 7mph
Humidity: 93%   Direction: 20°NNE
Pressure: 30.07"   Gusts: NA
Location:  39.82°N, 75.78°W
Report Text: KMQS 261215Z AUTO 02006KT 4SM RA BKN022 OVC034 04/03 A3007 RMK AO2 P0004
Loading
Personal Weather Stations






























Interactive Weather Map New forecast layout! Learn more

10-Day Weather Forecast

Advertisements
Track Severe Weather on mobile